Amherst, Wisconsin
Current Conditions -  °F | °C
As of 3:55 PM on Friday 28 Nov 2014 (Local Time) from KSTE Reporting Station
Overcast Overcast  
Wind Chill:   Ceiling: 1900
Heat Index: 18°   Visibility: 10mi
Dew Point: 14°   Wind: 8mph
Humidity: 86%   Direction: 100°E
Pressure: 29.92"   Gusts: NA
Location:  44.45°N, 89.28°W
Report Text: KSTE 282155Z AUTO 10007KT 10SM BKN019 OVC085 M08/M10 A2992 RMK AO2 T10801100
Loading
Personal Weather Stations






























Interactive Weather Map New forecast layout! Learn more

10-Day Weather Forecast

Advertisements
Track Severe Weather on mobile